createdAt,value
2023-02-20T00:03:38.562Z,5.80
2023-02-20T00:08:52.400Z,4.30
2023-02-20T00:13:57.612Z,3.80
2023-02-20T00:19:06.102Z,5.40
2023-02-20T00:24:10.157Z,4.60
2023-02-20T00:29:17.517Z,5.40
2023-02-20T00:34:30.175Z,6.90
2023-02-20T00:39:36.938Z,3.20
2023-02-20T00:44:40.493Z,4.60
2023-02-20T00:49:43.911Z,3.20
2023-02-20T00:54:47.413Z,4.40
2023-02-20T00:59:51.999Z,3.40
2023-02-20T01:04:57.135Z,5.30
2023-02-20T01:10:01.187Z,4.70
2023-02-20T01:15:06.954Z,3.60
2023-02-20T01:20:12.173Z,3.40
2023-02-20T01:25:15.517Z,3.10
2023-02-20T01:30:19.655Z,3.30
2023-02-20T01:35:22.933Z,4.50
2023-02-20T01:40:29.228Z,4.10
2023-02-20T01:45:37.776Z,5.00
2023-02-20T01:50:44.196Z,6.30
2023-02-20T01:55:54.809Z,7.50
2023-02-20T02:01:06.513Z,4.30
2023-02-20T02:06:13.612Z,5.40
2023-02-20T02:11:24.294Z,3.00
2023-02-20T02:16:51.918Z,3.00
2023-02-20T02:22:17.253Z,3.50
2023-02-20T02:27:26.655Z,3.70
2023-02-20T02:32:57.516Z,2.50
2023-02-20T02:38:17.768Z,4.40
2023-02-20T02:43:40.662Z,5.50
2023-02-20T02:48:54.290Z,4.70
2023-02-20T02:54:14.716Z,5.50
2023-02-20T02:59:27.717Z,7.40
2023-02-20T03:04:34.532Z,9.20
2023-02-20T03:10:01.498Z,7.40
2023-02-20T03:15:36.219Z,6.20
2023-02-20T03:21:02.207Z,8.90
2023-02-20T03:26:10.520Z,3.90
2023-02-20T03:31:34.136Z,5.50
2023-02-20T03:37:04.665Z,3.80
2023-02-20T03:42:28.583Z,3.10
2023-02-20T03:47:36.823Z,2.80
2023-02-20T03:52:41.944Z,6.30
2023-02-20T03:57:51.645Z,3.80
2023-02-20T04:02:58.598Z,4.80
2023-02-20T04:08:06.670Z,3.70
2023-02-20T04:13:13.714Z,5.40
2023-02-20T04:18:21.445Z,5.80
2023-02-20T04:23:26.503Z,6.60
2023-02-20T04:28:31.274Z,6.20
2023-02-20T04:33:34.599Z,4.90
2023-02-20T04:38:38.022Z,7.40
2023-02-20T04:43:41.340Z,8.50
2023-02-20T04:48:47.199Z,5.90
2023-02-20T04:53:50.575Z,7.00
2023-02-20T04:58:54.065Z,8.60
2023-02-20T05:03:57.408Z,7.20
2023-02-20T05:09:00.703Z,7.50
2023-02-20T05:14:05.481Z,6.30
2023-02-20T05:19:09.226Z,5.60
2023-02-20T05:24:12.900Z,6.00
2023-02-20T05:29:16.376Z,6.70
2023-02-20T05:34:23.163Z,6.10
2023-02-20T05:39:26.958Z,7.20
2023-02-20T05:44:31.439Z,10.40
2023-02-20T05:49:36.496Z,7.70
2023-02-20T05:54:41.154Z,8.30
2023-02-20T05:59:44.633Z,8.20
2023-02-20T06:04:48.423Z,11.20
2023-02-20T06:09:52.346Z,6.50
2023-02-20T06:14:56.833Z,7.90
2023-02-20T06:20:00.877Z,10.70
2023-02-20T06:25:05.076Z,16.90
2023-02-20T06:30:12.597Z,12.20
2023-02-20T06:35:16.897Z,11.90
2023-02-20T06:40:20.633Z,10.30
2023-02-20T06:45:24.202Z,13.70
2023-02-20T06:50:27.716Z,18.00
2023-02-20T06:55:31.364Z,19.90
2023-02-20T07:00:35.132Z,18.10
2023-02-20T07:05:44.631Z,19.10
2023-02-20T07:11:14.617Z,17.80
2023-02-20T07:17:01.869Z,11.90
2023-02-20T07:40:40.087Z,7.80
2023-02-20T07:46:13.149Z,7.30
2023-02-20T07:52:21.776Z,7.50
2023-02-20T08:03:34.559Z,7.50
2023-02-20T08:08:38.962Z,7.20
2023-02-20T08:13:45.347Z,7.40
2023-02-20T08:18:50.178Z,7.80
2023-02-20T08:23:55.396Z,7.70
2023-02-20T08:28:58.939Z,9.90
2023-02-20T08:34:02.329Z,11.10
2023-02-20T08:39:05.836Z,9.40
2023-02-20T08:44:09.309Z,6.60
2023-02-20T08:49:16.207Z,9.70
2023-02-20T08:54:19.644Z,14.10
2023-02-20T08:59:23.165Z,11.40
2023-02-20T09:04:26.480Z,10.70
2023-02-20T09:09:31.586Z,10.00
2023-02-20T09:14:35.202Z,7.30
2023-02-20T09:19:38.949Z,15.40
2023-02-20T09:24:45.690Z,18.40
2023-02-20T09:29:49.302Z,14.80
2023-02-20T09:34:52.573Z,9.30
2023-02-20T09:39:55.921Z,5.90
2023-02-20T09:45:17.744Z,10.10
2023-02-20T09:50:53.894Z,7.80
2023-02-20T09:56:00.189Z,5.50
2023-02-20T10:01:05.557Z,6.80
2023-02-20T10:06:17.462Z,7.50
2023-02-20T10:11:46.124Z,8.10
2023-02-20T10:16:57.717Z,9.70
2023-02-20T10:22:14.578Z,9.20
2023-02-20T10:27:29.088Z,12.60
2023-02-20T10:32:51.456Z,14.80
2023-02-20T10:37:58.887Z,15.20
2023-02-20T10:43:18.028Z,12.60
2023-02-20T10:48:26.736Z,19.80
2023-02-20T10:53:49.357Z,17.40
2023-02-20T10:59:08.986Z,15.50
2023-02-20T11:04:27.630Z,25.50
2023-02-20T11:09:31.114Z,21.20
2023-02-20T11:14:44.007Z,20.60
2023-02-20T11:19:54.632Z,21.20
2023-02-20T11:25:16.494Z,25.60
2023-02-20T11:30:36.262Z,24.70
2023-02-20T11:35:42.466Z,31.20
2023-02-20T11:41:03.699Z,31.00
2023-02-20T11:46:23.223Z,23.10
2023-02-20T11:51:45.416Z,26.90
2023-02-20T11:57:30.481Z,22.00
2023-02-20T12:02:34.292Z,19.30
2023-02-20T12:07:37.789Z,16.50
2023-02-20T12:12:41.229Z,30.00
2023-02-20T12:17:59.670Z,19.60
2023-02-20T12:23:03.050Z,21.10
2023-02-20T12:28:38.422Z,17.80
2023-02-20T12:33:44.783Z,15.20
2023-02-20T12:39:12.750Z,18.10
2023-02-20T12:44:23.319Z,19.70
2023-02-20T12:49:26.586Z,17.10
2023-02-20T12:54:55.570Z,16.10
2023-02-20T13:00:03.497Z,20.10
2023-02-20T13:05:24.312Z,20.70
2023-02-20T13:10:40.440Z,19.20
2023-02-20T13:16:04.464Z,21.80
2023-02-20T13:21:15.636Z,19.90
2023-02-20T13:26:27.431Z,20.70
2023-02-20T13:31:36.932Z,20.00
2023-02-20T13:36:51.690Z,18.20
2023-02-20T13:41:55.253Z,14.50
2023-02-20T13:47:28.014Z,21.00
2023-02-20T13:52:45.208Z,15.80
2023-02-20T13:57:53.834Z,15.10
2023-02-20T14:02:58.030Z,15.80
2023-02-20T14:08:01.559Z,16.90
2023-02-20T14:13:13.990Z,17.80
2023-02-20T14:18:36.517Z,16.30
2023-02-20T14:23:41.041Z,14.40
2023-02-20T14:28:47.334Z,16.00
2023-02-20T14:34:19.745Z,17.70
2023-02-20T14:39:36.578Z,15.20
2023-02-20T14:44:44.094Z,13.60
2023-02-20T14:49:49.217Z,17.20
2023-02-20T14:54:58.669Z,16.10
2023-02-20T15:00:37.757Z,14.80
2023-02-20T15:05:42.885Z,14.50
2023-02-20T15:10:55.724Z,12.90
2023-02-20T15:16:11.962Z,13.70
2023-02-20T15:21:48.593Z,14.80
2023-02-20T15:27:20.012Z,13.60
2023-02-20T15:32:34.252Z,15.50
2023-02-20T15:37:48.589Z,12.40
2023-02-20T15:43:04.412Z,13.30
2023-02-20T15:48:12.049Z,14.80
2023-02-20T15:53:29.221Z,14.10
2023-02-20T15:58:44.080Z,18.00
2023-02-20T16:03:53.386Z,17.80
2023-02-20T16:08:57.968Z,13.40
2023-02-20T16:14:03.704Z,9.90
2023-02-20T16:19:17.674Z,9.20
2023-02-20T16:24:22.327Z,9.00
2023-02-20T16:29:33.363Z,8.80
2023-02-20T16:34:40.798Z,9.30
2023-02-20T16:39:53.768Z,7.90
2023-02-20T16:44:59.242Z,7.30
2023-02-20T16:50:10.229Z,7.50
2023-02-20T16:55:34.512Z,6.90
2023-02-20T17:00:57.217Z,7.90
2023-02-20T17:06:02.428Z,7.60
2023-02-20T17:11:06.849Z,8.20
2023-02-20T17:16:16.967Z,7.90
2023-02-20T17:21:30.344Z,8.10
2023-02-20T17:26:36.791Z,9.30
2023-02-20T17:31:43.009Z,7.20
2023-02-20T17:36:49.705Z,6.90
2023-02-20T17:41:55.907Z,9.30
2023-02-20T17:47:02.627Z,6.70
2023-02-20T17:52:08.662Z,10.10
2023-02-20T17:57:12.622Z,5.40
2023-02-20T18:02:19.253Z,5.40
2023-02-20T18:07:25.546Z,5.10
2023-02-20T18:12:31.152Z,9.10
2023-02-20T18:17:38.175Z,4.20
2023-02-20T18:22:41.620Z,4.80
2023-02-20T18:27:45.544Z,4.70
2023-02-20T18:32:49.376Z,1.70
2023-02-20T18:37:52.950Z,1.90
2023-02-20T18:42:57.529Z,4.40
2023-02-20T18:48:01.077Z,3.60
2023-02-20T18:53:04.814Z,4.00
2023-02-20T18:58:08.297Z,4.40
2023-02-20T19:03:11.951Z,7.40
2023-02-20T19:08:15.612Z,6.00
2023-02-20T19:13:19.530Z,7.00
2023-02-20T19:18:23.387Z,10.80
2023-02-20T19:23:29.939Z,13.50
2023-02-20T19:28:34.355Z,9.10
2023-02-20T19:33:41.041Z,6.50
2023-02-20T19:38:45.001Z,12.60
2023-02-20T19:43:49.815Z,13.90
2023-02-20T19:48:53.333Z,11.90
2023-02-20T19:53:56.835Z,13.00
2023-02-20T19:59:00.320Z,14.60
2023-02-20T20:04:03.940Z,17.30
2023-02-20T20:09:16.616Z,9.70
2023-02-20T20:14:24.228Z,4.10
2023-02-20T20:19:28.394Z,14.30
2023-02-20T20:24:32.387Z,9.90
2023-02-20T20:29:51.835Z,12.80
2023-02-20T20:34:59.654Z,12.50
2023-02-20T20:40:03.566Z,9.00
2023-02-20T20:45:09.498Z,7.80
2023-02-20T20:50:17.005Z,10.60
2023-02-20T20:55:20.731Z,6.20
2023-02-20T21:00:31.166Z,7.60
2023-02-20T21:05:35.000Z,4.60
2023-02-20T21:10:41.036Z,11.10
2023-02-20T21:15:44.753Z,7.90
2023-02-20T21:20:48.451Z,12.40
2023-02-20T21:25:52.004Z,10.40
2023-02-20T21:30:55.521Z,7.20
2023-02-20T21:36:00.714Z,10.70
2023-02-20T21:41:05.421Z,13.60
2023-02-20T21:46:09.895Z,8.90
2023-02-20T21:51:13.961Z,12.50
2023-02-20T21:56:17.637Z,10.30
2023-02-20T22:01:21.081Z,5.90
2023-02-20T22:06:26.673Z,8.80
2023-02-20T22:11:51.158Z,8.20
2023-02-20T22:17:13.461Z,7.30
2023-02-20T22:22:35.987Z,9.80
2023-02-20T22:27:57.858Z,10.70
2023-02-20T22:33:19.810Z,9.50
2023-02-20T22:38:41.717Z,10.30
2023-02-20T22:44:03.734Z,8.10
2023-02-20T22:49:26.415Z,10.80
2023-02-20T22:55:03.657Z,6.60
2023-02-20T23:00:28.446Z,7.70
2023-02-20T23:05:50.448Z,8.10
2023-02-20T23:11:13.697Z,7.90
2023-02-20T23:16:42.959Z,9.50
2023-02-20T23:22:05.060Z,6.50
2023-02-20T23:27:27.652Z,14.50
2023-02-20T23:32:49.703Z,6.30
2023-02-20T23:38:12.082Z,5.80
2023-02-20T23:43:34.177Z,5.60
2023-02-20T23:48:56.446Z,7.50
2023-02-20T23:54:18.744Z,12.00
2023-02-20T23:59:40.666Z,7.50
